Time;durP1;ratioP1;P1;durP2;ratioP2;P2;SDS_P1;SDS_P2;PMS_P1;PMS_P2;Temp;Humidity;BMP_temperature;BMP_pressure;BME280_temperature;BME280_humidity;BME280_pressure;Samples;Min_cycle;Max_cycle;Signal;HPM_P1;HPM_P2
2021/11/14 00:02:07;;;;;;;26.30;22.50;;;;;;;;;;5059771;28;24422;-63
2021/11/14 00:04:32;;;;;;;28.20;24.13;;;;;;;;;;5058867;28;24480;-63
2021/11/14 00:06:57;;;;;;;27.43;23.27;;;;;;;;;;5062053;28;24477;-63
2021/11/14 00:09:23;;;;;;;28.00;23.77;;;;;;;;;;5061468;28;24518;-63
2021/11/14 00:11:48;;;;;;;27.80;22.70;;;;;;;;;;5062937;28;24769;-63
2021/11/14 00:14:13;;;;;;;28.00;23.90;;;;;;;;;;5057633;28;24457;-62
2021/11/14 00:16:38;;;;;;;26.90;22.93;;;;;;;;;;5056682;28;24475;-63
2021/11/14 00:19:04;;;;;;;28.67;23.33;;;;;;;;;;5052784;28;24595;-63
2021/11/14 00:21:29;;;;;;;33.07;27.00;;;;;;;;;;5059883;28;24414;-63
2021/11/14 00:23:54;;;;;;;31.75;25.17;;;;;;;;;;5062600;28;24492;-63
2021/11/14 00:26:20;;;;;;;31.50;25.50;;;;;;;;;;5057695;28;24418;-63
2021/11/14 00:28:45;;;;;;;26.53;23.50;;;;;;;;;;5060195;28;24949;-63
2021/11/14 00:31:11;;;;;;;27.70;24.10;;;;;;;;;;5056380;28;24895;-62
2021/11/14 00:33:38;;;;;;;26.20;22.67;;;;;;;;;;5062325;28;24435;-62
2021/11/14 00:36:04;;;;;;;25.55;22.25;;;;;;;;;;5053359;28;24410;-63
2021/11/14 00:38:29;;;;;;;26.92;23.70;;;;;;;;;;5058945;28;24427;-62
2021/11/14 00:40:54;;;;;;;26.87;23.30;;;;;;;;;;5049941;28;24418;-62
2021/11/14 00:43:20;;;;;;;26.63;22.80;;;;;;;;;;5062571;28;24464;-61
2021/11/14 00:45:46;;;;;;;33.50;26.05;;;;;;;;;;5061041;28;24418;-61
2021/11/14 00:48:12;;;;;;;31.85;26.15;;;;;;;;;;5060801;28;24469;-61
2021/11/14 00:50:42;;;;;;;29.60;24.45;;;;;;;;;;5055280;28;24411;-61
2021/11/14 00:53:08;;;;;;;27.88;23.70;;;;;;;;;;5056508;28;24426;-61
2021/11/14 00:55:35;;;;;;;32.42;25.15;;;;;;;;;;5056341;28;24415;-61
2021/11/14 00:58:00;;;;;;;30.48;24.85;;;;;;;;;;5055767;28;25269;-61
2021/11/14 01:00:25;;;;;;;31.25;25.60;;;;;;;;;;5061898;28;24426;-61
2021/11/14 01:02:51;;;;;;;31.17;24.53;;;;;;;;;;5059898;28;24916;-63
2021/11/14 01:05:17;;;;;;;31.20;26.27;;;;;;;;;;5052651;28;24415;-63
2021/11/14 01:07:43;;;;;;;32.38;25.17;;;;;;;;;;5056623;28;24959;-60
2021/11/14 01:10:09;;;;;;;32.38;27.00;;;;;;;;;;5060012;28;24415;-61
2021/11/14 01:12:34;;;;;;;29.73;24.77;;;;;;;;;;5060532;28;24423;-60
2021/11/14 01:14:59;;;;;;;29.53;23.00;;;;;;;;;;5060451;28;24540;-61
2021/11/14 01:17:25;;;;;;;29.37;23.90;;;;;;;;;;5060273;28;24445;-61
2021/11/14 01:19:50;;;;;;;28.55;23.73;;;;;;;;;;5057786;28;25201;-61
2021/11/14 01:22:16;;;;;;;29.10;23.83;;;;;;;;;;5057573;28;24426;-63
2021/11/14 01:24:42;;;;;;;28.38;23.35;;;;;;;;;;5058000;28;24445;-63
2021/11/14 01:27:07;;;;;;;28.60;23.90;;;;;;;;;;5062013;28;24443;-61
2021/11/14 01:29:32;;;;;;;29.17;24.53;;;;;;;;;;5060173;28;24433;-62
2021/11/14 01:31:58;;;;;;;28.65;23.42;;;;;;;;;;5057587;28;24413;-62
2021/11/14 01:34:24;;;;;;;29.35;24.52;;;;;;;;;;5050935;28;24423;-62
2021/11/14 01:36:49;;;;;;;28.20;24.30;;;;;;;;;;5058286;28;24549;-62
2021/11/14 01:39:14;;;;;;;27.90;23.98;;;;;;;;;;5059923;28;24421;-61
2021/11/14 01:41:39;;;;;;;29.47;24.23;;;;;;;;;;5061073;28;24821;-62
2021/11/14 01:44:08;;;;;;;30.00;24.13;;;;;;;;;;5054556;28;24975;-62
2021/11/14 01:46:33;;;;;;;28.20;23.83;;;;;;;;;;5054400;28;24437;-61
2021/11/14 01:48:58;;;;;;;31.00;24.83;;;;;;;;;;5055984;28;24985;-61
2021/11/14 01:51:25;;;;;;;30.10;25.03;;;;;;;;;;5058996;28;24425;-61
2021/11/14 01:53:50;;;;;;;32.60;25.15;;;;;;;;;;5057990;28;24438;-62
2021/11/14 01:56:17;;;;;;;29.17;25.37;;;;;;;;;;5058346;28;24487;-62
2021/11/14 01:58:43;;;;;;;28.30;24.27;;;;;;;;;;5050808;28;24422;-62
2021/11/14 02:01:13;;;;;;;28.90;24.33;;;;;;;;;;5055413;28;24468;-61
2021/11/14 02:03:40;;;;;;;29.20;24.77;;;;;;;;;;5055714;28;24598;-61
2021/11/14 02:06:07;;;;;;;27.83;24.70;;;;;;;;;;5058164;28;24414;-61
2021/11/14 02:08:32;;;;;;;29.17;24.33;;;;;;;;;;5062010;28;24423;-62
2021/11/14 02:10:58;;;;;;;28.35;23.95;;;;;;;;;;5061554;28;24465;-61
2021/11/14 02:13:23;;;;;;;27.77;23.57;;;;;;;;;;5061471;28;24518;-61
2021/11/14 02:15:48;;;;;;;30.73;24.37;;;;;;;;;;5060264;28;24817;-61
2021/11/14 02:18:14;;;;;;;29.00;24.20;;;;;;;;;;5060951;28;24739;-61
2021/11/14 02:20:40;;;;;;;32.85;26.13;;;;;;;;;;5063184;28;24971;-61
2021/11/14 02:23:06;;;;;;;31.05;25.17;;;;;;;;;;5063252;28;24414;-61
2021/11/14 02:25:32;;;;;;;30.55;24.42;;;;;;;;;;5064348;28;25368;-62
2021/11/14 02:27:57;;;;;;;29.65;24.67;;;;;;;;;;5059991;28;25011;-60
2021/11/14 02:30:23;;;;;;;30.37;25.63;;;;;;;;;;5060200;28;24415;-61
2021/11/14 02:32:49;;;;;;;27.88;23.83;;;;;;;;;;5062717;28;24500;-60
2021/11/14 02:35:15;;;;;;;30.90;25.58;;;;;;;;;;5065112;28;24501;-61
2021/11/14 02:37:40;;;;;;;30.65;25.00;;;;;;;;;;5063758;28;24435;-61
2021/11/14 02:40:07;;;;;;;29.57;24.27;;;;;;;;;;5058087;28;24557;-61
2021/11/14 02:42:32;;;;;;;30.55;24.65;;;;;;;;;;5063238;28;24480;-61
2021/11/14 02:44:57;;;;;;;31.50;24.33;;;;;;;;;;5064581;28;24415;-61
2021/11/14 02:47:22;;;;;;;31.20;25.73;;;;;;;;;;5061697;28;24502;-61
2021/11/14 02:49:48;;;;;;;29.73;24.02;;;;;;;;;;5045643;28;24956;-62
2021/11/14 02:52:13;;;;;;;29.17;24.50;;;;;;;;;;5047933;28;25532;-61
2021/11/14 02:54:38;;;;;;;27.57;23.43;;;;;;;;;;5048120;28;24411;-61
2021/11/14 02:57:04;;;;;;;32.90;25.33;;;;;;;;;;5041553;28;24423;-61
2021/11/14 02:59:30;;;;;;;32.87;25.03;;;;;;;;;;5054866;28;24864;-61
2021/11/14 03:01:55;;;;;;;31.02;25.10;;;;;;;;;;5062933;28;24426;-60
2021/11/14 03:04:23;;;;;;;29.30;24.27;;;;;;;;;;5064860;28;24395;-61
2021/11/14 03:06:49;;;;;;;30.52;24.55;;;;;;;;;;5064711;28;24583;-61
2021/11/14 03:09:15;;;;;;;28.23;23.83;;;;;;;;;;5060247;28;24416;-61
2021/11/14 03:11:41;;;;;;;30.40;25.00;;;;;;;;;;5044730;28;24425;-61
2021/11/14 03:14:06;;;;;;;30.88;24.65;;;;;;;;;;5047951;28;24415;-61
2021/11/14 03:16:33;;;;;;;29.20;24.33;;;;;;;;;;5058936;28;25240;-61
2021/11/14 03:18:58;;;;;;;32.10;25.55;;;;;;;;;;5052464;28;24446;-61
2021/11/14 03:21:24;;;;;;;33.13;25.30;;;;;;;;;;5043789;28;24471;-61
2021/11/14 03:23:49;;;;;;;29.90;23.80;;;;;;;;;;5063983;28;24468;-61
2021/11/14 03:26:14;;;;;;;30.30;24.47;;;;;;;;;;5062546;28;24444;-61
2021/11/14 03:28:40;;;;;;;30.47;24.63;;;;;;;;;;5062340;28;24425;-61
2021/11/14 03:31:05;;;;;;;31.10;25.02;;;;;;;;;;5051304;28;25022;-61
2021/11/14 03:33:30;;;;;;;30.38;24.08;;;;;;;;;;5060796;28;25074;-61
2021/11/14 03:35:58;;;;;;;30.67;25.53;;;;;;;;;;5061392;28;24405;-61
2021/11/14 03:38:25;;;;;;;30.58;24.50;;;;;;;;;;5064083;28;24411;-61
2021/11/14 03:40:50;;;;;;;29.55;23.83;;;;;;;;;;5063184;28;24411;-61
2021/11/14 03:43:15;;;;;;;28.30;23.92;;;;;;;;;;5040857;28;24469;-61
2021/11/14 03:45:41;;;;;;;28.60;24.50;;;;;;;;;;5055988;28;24457;-61
2021/11/14 03:48:06;;;;;;;28.90;23.20;;;;;;;;;;5066259;28;24406;-61
2021/11/14 03:50:31;;;;;;;27.83;24.13;;;;;;;;;;5079630;28;24426;-61
2021/11/14 03:52:57;;;;;;;29.95;25.85;;;;;;;;;;5054868;28;24426;-61
2021/11/14 03:55:22;;;;;;;28.10;23.37;;;;;;;;;;5044039;28;24414;-60
2021/11/14 03:57:47;;;;;;;28.80;24.10;;;;;;;;;;5048370;28;25018;-60
2021/11/14 04:00:16;;;;;;;27.80;23.47;;;;;;;;;;5055906;28;25031;-60
2021/11/14 04:02:41;;;;;;;28.05;23.90;;;;;;;;;;5057774;28;24770;-61
2021/11/14 04:05:07;;;;;;;29.00;24.80;;;;;;;;;;5060759;28;24941;-61
2021/11/14 04:07:32;;;;;;;28.87;24.30;;;;;;;;;;5063852;28;24406;-63
2021/11/14 04:09:57;;;;;;;28.83;24.90;;;;;;;;;;5059758;28;24446;-60
2021/11/14 04:12:22;;;;;;;29.60;25.00;;;;;;;;;;5058389;28;24470;-60
2021/11/14 04:14:47;;;;;;;28.40;23.90;;;;;;;;;;5057406;28;25093;-63
2021/11/14 04:17:12;;;;;;;29.17;24.27;;;;;;;;;;5061672;28;24430;-60
2021/11/14 04:19:38;;;;;;;27.23;23.63;;;;;;;;;;5047822;28;24414;-60
2021/11/14 04:22:03;;;;;;;27.92;22.98;;;;;;;;;;5060712;28;24411;-60
2021/11/14 04:24:28;;;;;;;28.40;23.90;;;;;;;;;;5056727;28;24431;-60
2021/11/14 04:26:53;;;;;;;29.13;23.40;;;;;;;;;;5059289;28;24963;-62
2021/11/14 04:29:18;;;;;;;30.23;24.13;;;;;;;;;;5063542;28;24508;-60
2021/11/14 04:31:44;;;;;;;30.38;23.40;;;;;;;;;;5062483;28;24395;-60
2021/11/14 04:34:09;;;;;;;28.95;23.63;;;;;;;;;;5059195;28;24518;-60
2021/11/14 04:36:34;;;;;;;29.20;23.87;;;;;;;;;;5038409;28;24465;-62
2021/11/14 04:38:59;;;;;;;31.80;25.33;;;;;;;;;;5059050;28;24433;-60
2021/11/14 04:41:24;;;;;;;29.50;24.10;;;;;;;;;;5061865;28;24998;-60
2021/11/14 04:43:49;;;;;;;28.70;23.35;;;;;;;;;;5063178;28;24464;-60
2021/11/14 04:46:15;;;;;;;30.57;24.30;;;;;;;;;;5056462;28;24421;-60
2021/11/14 04:48:40;;;;;;;28.40;24.17;;;;;;;;;;5059306;28;24409;-60
2021/11/14 04:51:05;;;;;;;28.45;23.85;;;;;;;;;;5049083;28;24420;-60
2021/11/14 04:53:30;;;;;;;29.35;24.65;;;;;;;;;;5042864;28;24395;-60
2021/11/14 04:55:55;;;;;;;28.50;23.48;;;;;;;;;;5058288;28;24414;-60
2021/11/14 04:58:20;;;;;;;27.67;24.03;;;;;;;;;;5042787;28;24975;-60
2021/11/14 05:00:49;;;;;;;30.77;24.60;;;;;;;;;;5042755;28;24399;-61
2021/11/14 05:03:14;;;;;;;30.65;24.63;;;;;;;;;;5039212;28;25072;-60
2021/11/14 05:05:41;;;;;;;28.95;23.45;;;;;;;;;;5037097;28;25310;-61
2021/11/14 05:08:06;;;;;;;29.88;23.98;;;;;;;;;;5040792;28;24478;-60
2021/11/14 05:10:32;;;;;;;30.17;23.85;;;;;;;;;;5042471;28;24479;-60
2021/11/14 05:12:57;;;;;;;30.85;23.80;;;;;;;;;;5041058;28;25008;-60
2021/11/14 05:15:23;;;;;;;27.15;23.38;;;;;;;;;;5040655;28;24514;-61
2021/11/14 05:17:48;;;;;;;27.50;24.00;;;;;;;;;;5039088;28;24546;-61
2021/11/14 05:20:13;;;;;;;31.58;23.88;;;;;;;;;;5051506;28;24403;-61
2021/11/14 05:22:38;;;;;;;28.50;23.37;;;;;;;;;;5043170;28;24419;-61
2021/11/14 05:25:04;;;;;;;30.23;23.70;;;;;;;;;;5048510;28;24415;-61
2021/11/14 05:27:29;;;;;;;27.70;22.20;;;;;;;;;;5042540;28;24419;-61
2021/11/14 05:29:55;;;;;;;30.07;24.20;;;;;;;;;;5047984;28;24419;-61
2021/11/14 05:32:20;;;;;;;29.43;23.67;;;;;;;;;;5050575;28;25250;-60
2021/11/14 05:34:45;;;;;;;28.37;24.10;;;;;;;;;;5077402;28;24386;-61
2021/11/14 05:37:10;;;;;;;30.77;24.13;;;;;;;;;;5055741;28;24419;-61
2021/11/14 05:39:35;;;;;;;29.08;23.85;;;;;;;;;;5050941;28;24832;-61
2021/11/14 05:42:01;;;;;;;26.93;23.53;;;;;;;;;;5060142;28;24417;-61
2021/11/14 05:44:26;;;;;;;26.27;23.38;;;;;;;;;;5060758;28;24468;-61
2021/11/14 05:46:51;;;;;;;29.27;24.13;;;;;;;;;;5061478;28;24419;-61
2021/11/14 05:49:16;;;;;;;26.07;22.70;;;;;;;;;;5059048;28;24524;-60
2021/11/14 05:51:42;;;;;;;29.73;24.40;;;;;;;;;;5063269;28;24514;-61
2021/11/14 05:54:08;;;;;;;31.47;23.80;;;;;;;;;;5064525;28;24887;-61
2021/11/14 05:56:33;;;;;;;30.40;24.23;;;;;;;;;;5061189;28;24407;-61
2021/11/14 06:01:47;;;;;;;29.10;23.70;;;;;;;;;;5060459;28;24405;-61
2021/11/14 06:04:27;;;;;;;29.70;24.17;;;;;;;;;;5059115;28;24423;-61
2021/11/14 06:06:52;;;;;;;27.90;23.10;;;;;;;;;;5047835;28;24415;-61
2021/11/14 06:09:17;;;;;;;28.25;23.50;;;;;;;;;;5062412;28;24484;-62
2021/11/14 06:11:42;;;;;;;29.02;23.40;;;;;;;;;;5065122;28;24423;-61
2021/11/14 06:14:07;;;;;;;29.83;24.27;;;;;;;;;;5060018;28;24517;-61
2021/11/14 06:16:33;;;;;;;28.95;23.30;;;;;;;;;;5058904;28;24410;-61
2021/11/14 06:18:58;;;;;;;28.20;23.17;;;;;;;;;;5048959;28;24965;-61
2021/11/14 06:21:23;;;;;;;29.30;24.60;;;;;;;;;;5056713;28;24427;-61
2021/11/14 06:23:49;;;;;;;28.70;24.53;;;;;;;;;;5064022;28;24777;-61
2021/11/14 06:26:14;;;;;;;29.17;24.70;;;;;;;;;;5063731;28;24501;-61
2021/11/14 06:28:39;;;;;;;32.80;25.03;;;;;;;;;;5059284;28;24480;-61
2021/11/14 06:31:04;;;;;;;31.17;25.00;;;;;;;;;;5063818;28;24952;-61
2021/11/14 06:33:30;;;;;;;32.27;26.27;;;;;;;;;;5064624;28;24445;-61
2021/11/14 06:35:55;;;;;;;30.83;25.63;;;;;;;;;;5062411;28;24449;-61
2021/11/14 06:38:20;;;;;;;32.50;26.80;;;;;;;;;;5058606;28;24841;-64
2021/11/14 06:40:45;;;;;;;31.60;26.23;;;;;;;;;;5052783;28;24412;-61
2021/11/14 06:43:10;;;;;;;30.73;25.30;;;;;;;;;;5057429;28;24773;-62
2021/11/14 06:45:35;;;;;;;32.90;25.97;;;;;;;;;;5067374;28;24411;-62
2021/11/14 06:48:01;;;;;;;28.40;24.40;;;;;;;;;;5059438;28;24422;-62
2021/11/14 06:50:26;;;;;;;28.37;24.47;;;;;;;;;;5053842;28;24422;-62
2021/11/14 06:52:51;;;;;;;31.97;26.20;;;;;;;;;;5061003;28;24465;-62
2021/11/14 06:55:17;;;;;;;29.83;24.87;;;;;;;;;;5070283;28;24409;-61
2021/11/14 06:57:43;;;;;;;29.60;24.38;;;;;;;;;;5066072;28;24982;-62
2021/11/14 07:00:11;;;;;;;30.75;25.38;;;;;;;;;;5062978;28;24454;-61
2021/11/14 07:02:36;;;;;;;31.58;24.13;;;;;;;;;;5062796;28;24386;-62
2021/11/14 07:05:02;;;;;;;35.03;28.17;;;;;;;;;;5050952;28;24489;-62
2021/11/14 07:07:27;;;;;;;30.90;26.10;;;;;;;;;;5048506;28;24426;-61
2021/11/14 07:09:52;;;;;;;31.03;26.77;;;;;;;;;;5058967;28;24489;-61
2021/11/14 07:12:18;;;;;;;30.15;24.63;;;;;;;;;;5064903;28;24429;-61
2021/11/14 07:14:43;;;;;;;29.13;24.85;;;;;;;;;;5058707;28;24964;-61
2021/11/14 07:17:08;;;;;;;32.30;25.13;;;;;;;;;;5054586;28;24434;-61
2021/11/14 07:19:33;;;;;;;28.73;23.53;;;;;;;;;;5058350;28;24403;-61
2021/11/14 07:21:59;;;;;;;28.88;24.15;;;;;;;;;;5057614;28;24410;-61
2021/11/14 07:24:24;;;;;;;29.20;23.53;;;;;;;;;;5057077;28;24414;-61
2021/11/14 07:26:49;;;;;;;26.13;22.83;;;;;;;;;;5063197;28;24436;-61
2021/11/14 07:29:14;;;;;;;28.43;22.80;;;;;;;;;;5061694;28;24815;-61
2021/11/14 07:31:40;;;;;;;28.93;22.90;;;;;;;;;;5059990;28;25284;-61
2021/11/14 07:34:05;;;;;;;28.92;23.55;;;;;;;;;;5056755;28;24484;-61
2021/11/14 07:36:31;;;;;;;27.67;22.57;;;;;;;;;;5059846;28;24418;-61
2021/11/14 07:38:56;;;;;;;28.20;23.03;;;;;;;;;;5060089;28;24568;-61
2021/11/14 07:41:21;;;;;;;27.27;21.40;;;;;;;;;;5063058;28;24544;-62
2021/11/14 07:43:46;;;;;;;27.70;23.00;;;;;;;;;;5063244;28;24448;-61
2021/11/14 07:46:12;;;;;;;27.05;22.05;;;;;;;;;;5059630;28;24476;-62
2021/11/14 07:48:37;;;;;;;25.67;22.23;;;;;;;;;;5057056;28;25023;-61
2021/11/14 07:51:03;;;;;;;24.65;20.45;;;;;;;;;;5057392;28;24426;-61
2021/11/14 07:53:31;;;;;;;26.17;21.50;;;;;;;;;;5060774;28;24412;-61
2021/11/14 07:55:59;;;;;;;25.60;21.05;;;;;;;;;;5060800;28;24496;-62
2021/11/14 07:58:24;;;;;;;23.70;21.13;;;;;;;;;;5061398;28;24814;-61
2021/11/14 08:00:50;;;;;;;24.63;20.10;;;;;;;;;;5058201;28;24946;-61
2021/11/14 08:03:16;;;;;;;24.65;21.10;;;;;;;;;;5054025;28;24446;-61
2021/11/14 08:05:42;;;;;;;23.40;20.80;;;;;;;;;;5057495;28;24468;-62
2021/11/14 08:08:07;;;;;;;21.33;19.13;;;;;;;;;;5059997;28;24415;-62
2021/11/14 08:10:33;;;;;;;21.40;18.90;;;;;;;;;;5060259;28;24459;-62
2021/11/14 08:12:59;;;;;;;21.63;18.75;;;;;;;;;;5054943;28;24415;-62
2021/11/14 08:15:24;;;;;;;25.02;22.33;;;;;;;;;;5056067;28;24497;-60
2021/11/14 08:17:50;;;;;;;24.52;20.98;;;;;;;;;;5056718;28;24459;-61
2021/11/14 08:20:15;;;;;;;21.60;18.77;;;;;;;;;;5049614;28;24433;-61
2021/11/14 08:22:40;;;;;;;23.60;20.13;;;;;;;;;;5060568;28;24472;-62
2021/11/14 08:25:07;;;;;;;21.87;18.80;;;;;;;;;;5055037;28;24419;-61
2021/11/14 08:27:32;;;;;;;20.98;18.15;;;;;;;;;;5055175;28;24498;-61
2021/11/14 08:30:00;;;;;;;22.77;20.20;;;;;;;;;;5060049;28;24505;-60
2021/11/14 08:32:26;;;;;;;21.05;18.85;;;;;;;;;;5063955;28;24446;-60
2021/11/14 08:34:51;;;;;;;20.67;18.33;;;;;;;;;;5061207;28;25015;-61
2021/11/14 08:37:16;;;;;;;22.73;19.93;;;;;;;;;;5071534;28;24446;-61
2021/11/14 08:39:42;;;;;;;20.90;17.70;;;;;;;;;;5062724;28;24414;-61
2021/11/14 08:42:08;;;;;;;21.20;17.73;;;;;;;;;;5060626;28;24410;-63
2021/11/14 08:44:33;;;;;;;21.50;18.57;;;;;;;;;;5056990;28;24426;-61
2021/11/14 08:46:58;;;;;;;19.93;17.20;;;;;;;;;;5064633;28;24445;-62
2021/11/14 08:49:24;;;;;;;19.87;17.77;;;;;;;;;;5081244;28;24394;-61
2021/11/14 08:51:50;;;;;;;19.80;17.70;;;;;;;;;;5076682;28;24422;-61
2021/11/14 08:54:15;;;;;;;20.08;16.88;;;;;;;;;;5070042;28;24977;-61
2021/11/14 08:56:40;;;;;;;19.63;17.53;;;;;;;;;;5063200;28;24406;-62
2021/11/14 08:59:08;;;;;;;20.37;17.47;;;;;;;;;;5056407;28;24537;-61
2021/11/14 09:01:34;;;;;;;17.67;15.48;;;;;;;;;;5051905;28;24458;-61
2021/11/14 09:03:59;;;;;;;19.07;17.07;;;;;;;;;;5056648;28;24974;-61
2021/11/14 09:06:24;;;;;;;18.30;16.30;;;;;;;;;;5050104;28;24427;-62
2021/11/14 09:08:50;;;;;;;17.93;16.03;;;;;;;;;;5061934;28;24410;-61
2021/11/14 09:11:16;;;;;;;17.27;15.30;;;;;;;;;;5050057;28;24583;-66
2021/11/14 09:13:41;;;;;;;16.83;15.05;;;;;;;;;;5060300;28;24959;-61
2021/11/14 09:16:06;;;;;;;16.77;14.97;;;;;;;;;;5059762;28;24971;-61
2021/11/14 09:18:31;;;;;;;17.37;15.67;;;;;;;;;;5052919;28;24423;-62
2021/11/14 09:20:57;;;;;;;17.57;15.77;;;;;;;;;;5045296;28;24425;-61
2021/11/14 09:23:22;;;;;;;20.45;18.35;;;;;;;;;;5061833;28;24421;-61
2021/11/14 09:25:48;;;;;;;21.50;19.30;;;;;;;;;;5053200;28;25038;-62
2021/11/14 09:28:15;;;;;;;19.33;17.30;;;;;;;;;;5055651;28;25494;-61
2021/11/14 09:30:43;;;;;;;18.67;16.67;;;;;;;;;;5061838;28;25143;-61
2021/11/14 09:33:11;;;;;;;21.48;19.27;;;;;;;;;;5059436;28;24885;-61
2021/11/14 09:35:36;;;;;;;17.98;16.13;;;;;;;;;;5062027;28;24445;-61
2021/11/14 09:38:03;;;;;;;17.70;15.80;;;;;;;;;;5061242;28;24485;-60
2021/11/14 09:40:28;;;;;;;20.77;18.58;;;;;;;;;;5057856;28;25047;-61
2021/11/14 09:42:55;;;;;;;17.80;16.00;;;;;;;;;;5051314;28;24506;-61
2021/11/14 09:45:20;;;;;;;18.60;16.70;;;;;;;;;;5061784;28;24414;-60
2021/11/14 09:47:45;;;;;;;17.80;15.90;;;;;;;;;;5061598;28;24540;-60
2021/11/14 09:50:11;;;;;;;18.03;16.13;;;;;;;;;;5059560;28;24956;-60
2021/11/14 09:52:37;;;;;;;17.23;15.52;;;;;;;;;;5060966;28;24496;-60
2021/11/14 09:55:04;;;;;;;17.93;16.10;;;;;;;;;;5057925;28;24470;-60
2021/11/14 09:57:30;;;;;;;17.35;15.52;;;;;;;;;;5057490;28;24961;-60
2021/11/14 09:59:55;;;;;;;18.93;16.93;;;;;;;;;;5059517;28;24439;-60
2021/11/14 10:02:20;;;;;;;16.73;15.03;;;;;;;;;;5060567;28;24479;-59
2021/11/14 10:04:45;;;;;;;17.10;15.30;;;;;;;;;;5062688;28;24407;-60
2021/11/14 10:07:12;;;;;;;16.58;14.88;;;;;;;;;;5059853;28;24481;-60
2021/11/14 10:09:39;;;;;;;16.85;15.05;;;;;;;;;;5057941;28;24390;-60
2021/11/14 10:12:12;;;;;;;17.63;15.73;;;;;;;;;;5057241;28;24419;-60
2021/11/14 10:14:37;;;;;;;17.58;15.77;;;;;;;;;;5061014;28;24417;-60
2021/11/14 10:17:12;;;;;;;19.10;17.10;;;;;;;;;;5059446;28;24902;-60
2021/11/14 10:19:37;;;;;;;17.30;15.50;;;;;;;;;;5051429;28;24407;-60
2021/11/14 10:22:03;;;;;;;16.90;15.20;;;;;;;;;;5059068;28;24461;-60
2021/11/14 10:24:28;;;;;;;16.93;15.23;;;;;;;;;;5058020;28;24410;-60
2021/11/14 10:26:53;;;;;;;16.77;14.97;;;;;;;;;;5060929;28;25222;-61
2021/11/14 10:29:19;;;;;;;16.13;14.50;;;;;;;;;;5059497;28;24503;-60
2021/11/14 10:31:44;;;;;;;16.48;14.68;;;;;;;;;;5064343;28;24419;-61
2021/11/14 10:34:09;;;;;;;16.63;14.93;;;;;;;;;;5059377;28;24422;-61
2021/11/14 10:36:35;;;;;;;17.53;15.73;;;;;;;;;;5062504;28;24414;-61
2021/11/14 10:39:05;;;;;;;16.90;14.90;;;;;;;;;;5063265;28;25081;-60
2021/11/14 10:41:30;;;;;;;15.97;14.30;;;;;;;;;;5076952;28;24413;-61
2021/11/14 10:44:03;;;;;;;16.63;14.93;;;;;;;;;;5072947;28;24407;-60
2021/11/14 10:46:28;;;;;;;19.20;17.20;;;;;;;;;;5064537;28;24407;-61
2021/11/14 10:49:01;;;;;;;19.47;17.47;;;;;;;;;;5059006;28;24425;-60
2021/11/14 10:51:27;;;;;;;22.92;20.52;;;;;;;;;;5062974;28;24418;-60
2021/11/14 10:53:52;;;;;;;21.00;17.70;;;;;;;;;;5062466;28;24410;-60
2021/11/14 10:56:18;;;;;;;16.90;15.20;;;;;;;;;;5063995;28;24764;-60
2021/11/14 10:58:45;;;;;;;19.25;17.20;;;;;;;;;;5063784;28;24445;-59
2021/11/14 11:01:11;;;;;;;18.00;16.20;;;;;;;;;;5062142;28;24511;-60
2021/11/14 11:03:40;;;;;;;22.27;19.98;;;;;;;;;;5064396;28;24482;-60
2021/11/14 11:06:06;;;;;;;21.70;19.50;;;;;;;;;;5060791;28;24398;-59
2021/11/14 11:08:31;;;;;;;23.70;20.02;;;;;;;;;;5062649;28;24816;-60
2021/11/14 11:10:58;;;;;;;17.93;16.03;;;;;;;;;;5061471;28;24979;-60
2021/11/14 11:13:37;;;;;;;19.77;17.67;;;;;;;;;;5063745;28;24554;-60
2021/11/14 11:16:06;;;;;;;18.42;16.52;;;;;;;;;;5062077;28;24407;-60
2021/11/14 11:18:31;;;;;;;22.70;20.30;;;;;;;;;;5062185;28;25061;-60
2021/11/14 11:20:57;;;;;;;23.67;21.17;;;;;;;;;;5060009;28;24542;-60
2021/11/14 11:23:23;;;;;;;19.10;17.20;;;;;;;;;;5057749;28;24537;-60
2021/11/14 11:25:50;;;;;;;21.50;19.20;;;;;;;;;;5064249;28;24422;-61
2021/11/14 11:28:18;;;;;;;22.02;19.73;;;;;;;;;;5062160;28;25077;-60
2021/11/14 11:30:45;;;;;;;19.80;17.80;;;;;;;;;;5051184;28;24415;-60
2021/11/14 11:33:10;;;;;;;20.90;18.70;;;;;;;;;;5061134;28;24500;-60
2021/11/14 11:35:36;;;;;;;19.20;17.20;;;;;;;;;;5062352;28;24824;-60
2021/11/14 11:38:02;;;;;;;18.80;16.80;;;;;;;;;;5060346;28;24538;-60
2021/11/14 11:40:27;;;;;;;17.05;15.25;;;;;;;;;;5058471;28;24542;-60
2021/11/14 11:42:53;;;;;;;18.40;16.50;;;;;;;;;;5058841;28;24975;-60
2021/11/14 11:45:25;;;;;;;17.02;15.32;;;;;;;;;;5060735;28;24502;-60
2021/11/14 11:47:50;;;;;;;20.88;18.67;;;;;;;;;;5063305;28;24415;-60
2021/11/14 11:50:16;;;;;;;19.33;17.43;;;;;;;;;;5060935;28;24421;-60
2021/11/14 11:52:42;;;;;;;20.27;18.17;;;;;;;;;;5058996;28;24418;-60
2021/11/14 11:55:17;;;;;;;18.60;16.70;;;;;;;;;;5061351;28;25263;-60
2021/11/14 11:57:43;;;;;;;17.70;15.90;;;;;;;;;;5048269;28;24988;-60
2021/11/14 12:00:08;;;;;;;19.00;17.10;;;;;;;;;;5055812;28;24450;-60
2021/11/14 12:02:33;;;;;;;19.47;17.47;;;;;;;;;;5052015;28;24498;-60
2021/11/14 12:05:16;;;;;;;20.23;17.70;;;;;;;;;;5044070;28;24481;-66
2021/11/14 12:07:48;;;;;;;18.45;16.45;;;;;;;;;;5052023;28;24538;-60
2021/11/14 12:10:17;;;;;;;20.25;18.15;;;;;;;;;;5054697;28;24691;-60
2021/11/14 12:12:48;;;;;;;17.60;15.80;;;;;;;;;;5061975;28;24843;-61
2021/11/14 12:15:18;;;;;;;19.08;17.05;;;;;;;;;;5056022;28;24422;-60
2021/11/14 12:17:50;;;;;;;22.83;20.35;;;;;;;;;;5054353;28;24469;-61
2021/11/14 12:20:17;;;;;;;19.00;17.00;;;;;;;;;;5061798;28;24419;-60
2021/11/14 12:22:44;;;;;;;20.17;17.98;;;;;;;;;;5058051;28;24484;-60
2021/11/14 12:25:18;;;;;;;16.90;15.20;;;;;;;;;;5040841;28;25502;-60
2021/11/14 12:27:44;;;;;;;17.48;15.68;;;;;;;;;;5057252;28;24622;-60
2021/11/14 12:30:14;;;;;;;19.90;17.80;;;;;;;;;;5053580;28;24506;-60
2021/11/14 12:32:48;;;;;;;19.90;17.80;;;;;;;;;;5058884;28;24973;-60
2021/11/14 12:35:15;;;;;;;23.02;20.10;;;;;;;;;;5049859;28;24438;-60
2021/11/14 12:38:11;;;;;;;22.67;20.25;;;;;;;;;;5052973;28;24434;-60
2021/11/14 12:40:38;;;;;;;24.98;22.33;;;;;;;;;;5040179;28;24437;-60
2021/11/14 12:43:16;;;;;;;21.73;18.63;;;;;;;;;;5057097;28;25660;-61
2021/11/14 12:45:52;;;;;;;22.08;19.30;;;;;;;;;;5065100;28;24407;-61
2021/11/14 12:48:20;;;;;;;22.63;20.33;;;;;;;;;;5054642;28;24569;-60
2021/11/14 12:50:45;;;;;;;19.70;17.60;;;;;;;;;;5064446;28;24430;-60
2021/11/14 12:53:12;;;;;;;22.63;19.37;;;;;;;;;;5058745;28;25017;-61
2021/11/14 12:55:40;;;;;;;19.40;17.10;;;;;;;;;;5045012;28;24524;-61
2021/11/14 12:58:07;;;;;;;18.48;16.48;;;;;;;;;;5058200;28;24439;-61
2021/11/14 13:00:36;;;;;;;21.35;19.08;;;;;;;;;;5064326;28;25026;-62
2021/11/14 13:03:03;;;;;;;23.00;20.35;;;;;;;;;;5058414;28;24434;-61
2021/11/14 13:05:28;;;;;;;19.40;17.30;;;;;;;;;;5043325;28;24441;-61
2021/11/14 13:07:57;;;;;;;19.90;17.90;;;;;;;;;;5052851;28;24973;-62
2021/11/14 13:10:22;;;;;;;19.03;17.03;;;;;;;;;;5057238;28;25033;-61
2021/11/14 13:12:48;;;;;;;19.60;17.50;;;;;;;;;;5040867;28;24403;-61
2021/11/14 13:15:14;;;;;;;19.20;17.10;;;;;;;;;;5042091;28;24449;-61
2021/11/14 13:17:44;;;;;;;17.30;14.83;;;;;;;;;;5049815;28;24959;-61
2021/11/14 13:20:12;;;;;;;16.77;15.07;;;;;;;;;;5056619;28;24413;-61
2021/11/14 13:22:38;;;;;;;15.85;14.25;;;;;;;;;;5056712;28;24452;-62
2021/11/14 13:25:04;;;;;;;17.90;16.00;;;;;;;;;;5062398;28;24758;-61
2021/11/14 13:27:29;;;;;;;15.80;14.20;;;;;;;;;;5062082;28;24800;-61
2021/11/14 13:29:55;;;;;;;14.80;13.20;;;;;;;;;;5060491;28;25033;-61
2021/11/14 13:32:21;;;;;;;14.60;13.10;;;;;;;;;;5059846;28;24850;-62
2021/11/14 13:34:48;;;;;;;17.58;15.68;;;;;;;;;;5058530;28;24871;-61
2021/11/14 13:37:15;;;;;;;17.55;15.75;;;;;;;;;;5056530;28;24425;-61
2021/11/14 13:39:42;;;;;;;16.23;14.63;;;;;;;;;;5055628;28;24407;-61
2021/11/14 13:42:09;;;;;;;16.10;14.50;;;;;;;;;;5061938;28;24793;-61
2021/11/14 13:44:42;;;;;;;14.20;12.70;;;;;;;;;;5062255;28;24452;-61
2021/11/14 13:47:09;;;;;;;16.48;14.68;;;;;;;;;;5060125;28;24932;-60
2021/11/14 13:49:35;;;;;;;17.48;15.68;;;;;;;;;;5057810;28;25004;-60
2021/11/14 13:52:02;;;;;;;15.63;14.02;;;;;;;;;;5056594;28;24971;-61
2021/11/14 13:54:27;;;;;;;15.70;14.00;;;;;;;;;;5060331;28;25002;-60
2021/11/14 13:56:52;;;;;;;14.97;13.47;;;;;;;;;;5060164;28;24402;-61
2021/11/14 13:59:18;;;;;;;16.30;14.60;;;;;;;;;;5061082;28;24793;-61
2021/11/14 14:01:54;;;;;;;16.40;14.70;;;;;;;;;;5062064;28;24463;-61
2021/11/14 14:04:19;;;;;;;18.00;16.17;;;;;;;;;;5056062;28;24407;-60
2021/11/14 14:06:44;;;;;;;15.20;13.60;;;;;;;;;;5061591;28;24518;-60
2021/11/14 14:09:15;;;;;;;14.65;13.15;;;;;;;;;;5062147;28;25015;-61
2021/11/14 14:11:42;;;;;;;14.88;13.38;;;;;;;;;;5065616;28;24459;-61
2021/11/14 14:14:07;;;;;;;14.43;13.02;;;;;;;;;;5063666;28;24745;-60